KLM40N EHAM-LIEE
Flight info
| Callsign | KLM40N |
|---|---|
| Flight time | N/A |
| Altitude | 35000 |
| Route | EDUPO Z739 MISGO DCT COL DCT EDISA DCT TRA DCT ODINA DCT TORTU DCT CORSI DCT RAMEN DCT KOVAS |
| Aircraft | E295/M-SDE3GILORVW/S |
Departure
| Time | 2026-05-05 12:14 |
|---|---|
| Airport | Amsterdam Airport Schiphol (EHAM) |
Arrival
| Time | N/A |
|---|---|
| Airport | Cagliari Elmas Airport (LIEE) |
| Time | Latitude | Longitude | Altitude | Speed | Heading |
|---|---|---|---|---|---|
| 2026-05-05 11:54 | 52.30284 | 4.76092 | -2 ft | 0 kts | 238° |
| 2026-05-05 12:06 | 52.30291 | 4.76108 | -2 ft | 4 kts | 237° |
| 2026-05-05 12:06 | 52.30303 | 4.76136 | -2 ft | 2 kts | 216° |
| 2026-05-05 12:06 | 52.30313 | 4.76142 | -2 ft | 2 kts | 166° |
| 2026-05-05 12:06 | 52.30323 | 4.76136 | -2 ft | 2 kts | 150° |
| 2026-05-05 12:07 | 52.30332 | 4.76128 | -2 ft | 0 kts | 148° |
| 2026-05-05 12:09 | 52.30307 | 4.76153 | -2 ft | 8 kts | 148° |
| 2026-05-05 12:09 | 52.30258 | 4.76202 | -2 ft | 8 kts | 148° |
| 2026-05-05 12:09 | 52.30193 | 4.76236 | -2 ft | 9 kts | 206° |
| 2026-05-05 12:09 | 52.30158 | 4.76166 | -2 ft | 14 kts | 238° |
| 2026-05-05 12:10 | 52.30105 | 4.76024 | -2 ft | 16 kts | 239° |
| 2026-05-05 12:10 | 52.30041 | 4.75860 | -2 ft | 19 kts | 238° |
| 2026-05-05 12:10 | 52.29962 | 4.75653 | -2 ft | 23 kts | 237° |
| 2026-05-05 12:10 | 52.29876 | 4.75426 | -2 ft | 24 kts | 238° |
| 2026-05-05 12:11 | 52.29854 | 4.75176 | -2 ft | 26 kts | 307° |
| 2026-05-05 12:11 | 52.29990 | 4.74923 | -2 ft | 31 kts | 313° |
| 2026-05-05 12:11 | 52.30130 | 4.74662 | 8 ft | 28 kts | 311° |
| 2026-05-05 12:11 | 52.30261 | 4.74421 | 9 ft | 29 kts | 311° |
| 2026-05-05 12:12 | 52.30369 | 4.74213 | -2 ft | 25 kts | 311° |
| 2026-05-05 12:12 | 52.30408 | 4.73967 | -2 ft | 23 kts | 261° |
| 2026-05-05 12:12 | 52.30448 | 4.73763 | -4 ft | 13 kts | 343° |
| 2026-05-05 12:12 | 52.30464 | 4.73763 | -4 ft | 0 kts | 2° |
| 2026-05-05 12:13 | 52.30557 | 4.73771 | -4 ft | 44 kts | 4° |
| 2026-05-05 12:13 | 52.31123 | 4.73822 | -2 ft | 117 kts | 3° |
| 2026-05-05 12:13 | 52.32114 | 4.73907 | 208 ft | 157 kts | 6° |
| 2026-05-05 12:14 | 52.33189 | 4.74120 | 929 ft | 144 kts | 20° |
| 2026-05-05 12:14 | 52.34088 | 4.74978 | 1416 ft | 160 kts | 34° |
| 2026-05-05 12:14 | 52.35053 | 4.76002 | 2182 ft | 170 kts | 31° |
| 2026-05-05 12:14 | 52.36093 | 4.77051 | 2764 ft | 182 kts | 32° |
| 2026-05-05 12:15 | 52.37298 | 4.78077 | 3043 ft | 210 kts | 27° |
| 2026-05-05 12:15 | 52.38622 | 4.79287 | 3741 ft | 220 kts | 32° |
| 2026-05-05 12:15 | 52.39903 | 4.80694 | 4589 ft | 226 kts | 37° |
| 2026-05-05 12:15 | 52.41069 | 4.82508 | 5136 ft | 245 kts | 54° |
| 2026-05-05 12:16 | 52.41770 | 4.85157 | 5638 ft | 263 kts | 74° |
| 2026-05-05 12:16 | 52.42174 | 4.88140 | 6317 ft | 272 kts | 80° |
| 2026-05-05 12:16 | 52.42355 | 4.91258 | 7042 ft | 277 kts | 89° |
| 2026-05-05 12:16 | 52.42345 | 4.94424 | 7770 ft | 281 kts | 98° |
| 2026-05-05 12:17 | 52.41643 | 4.97404 | 8499 ft | 284 kts | 123° |
| 2026-05-05 12:17 | 52.40433 | 4.99987 | 9246 ft | 288 kts | 132° |
| 2026-05-05 12:17 | 52.39039 | 5.02364 | 10008 ft | 292 kts | 136° |
| 2026-05-05 12:17 | 52.37451 | 5.04566 | 10431 ft | 308 kts | 144° |
| 2026-05-05 12:18 | 52.35700 | 5.06700 | 10938 ft | 319 kts | 142° |
| 2026-05-05 12:18 | 52.33961 | 5.09002 | 11663 ft | 323 kts | 141° |
| 2026-05-05 12:18 | 52.32284 | 5.11479 | 12369 ft | 327 kts | 134° |
| 2026-05-05 12:18 | 52.30728 | 5.14236 | 13075 ft | 331 kts | 133° |
| 2026-05-05 12:19 | 52.29167 | 5.17035 | 13778 ft | 336 kts | 132° |
| 2026-05-05 12:19 | 52.27603 | 5.19889 | 14430 ft | 339 kts | 133° |
| 2026-05-05 12:19 | 52.26033 | 5.22767 | 15109 ft | 341 kts | 133° |
| 2026-05-05 12:19 | 52.24477 | 5.25701 | 15808 ft | 343 kts | 129° |
| 2026-05-05 12:20 | 52.23059 | 5.28854 | 16475 ft | 345 kts | 127° |
| 2026-05-05 12:20 | 52.21652 | 5.32041 | 17147 ft | 347 kts | 127° |
| 2026-05-05 12:20 | 52.20251 | 5.35267 | 17824 ft | 350 kts | 127° |
| 2026-05-05 12:20 | 52.18867 | 5.38461 | 18484 ft | 352 kts | 127° |
| 2026-05-05 12:21 | 52.17446 | 5.41735 | 19084 ft | 356 kts | 127° |
| 2026-05-05 12:21 | 52.16007 | 5.45043 | 19672 ft | 359 kts | 127° |
| 2026-05-05 12:21 | 52.14548 | 5.48387 | 20277 ft | 363 kts | 127° |
| 2026-05-05 12:21 | 52.13078 | 5.51752 | 20861 ft | 366 kts | 127° |
| 2026-05-05 12:22 | 52.11592 | 5.55151 | 21389 ft | 370 kts | 127° |
| 2026-05-05 12:22 | 52.10089 | 5.58583 | 21945 ft | 373 kts | 127° |
| 2026-05-05 12:22 | 52.08575 | 5.62036 | 22464 ft | 376 kts | 127° |
| 2026-05-05 12:22 | 52.07059 | 5.65524 | 22980 ft | 379 kts | 127° |
| 2026-05-05 12:23 | 52.05413 | 5.68875 | 23488 ft | 380 kts | 133° |
| 2026-05-05 12:23 | 52.03709 | 5.72117 | 23937 ft | 383 kts | 132° |
| 2026-05-05 12:23 | 52.01961 | 5.75392 | 24398 ft | 385 kts | 133° |
| 2026-05-05 12:23 | 52.00197 | 5.78690 | 24869 ft | 388 kts | 132° |
| 2026-05-05 12:24 | 51.98460 | 5.82060 | 25310 ft | 390 kts | 135° |
| 2026-05-05 12:24 | 51.96627 | 5.85321 | 25729 ft | 393 kts | 133° |
| 2026-05-05 12:24 | 51.94829 | 5.88684 | 26132 ft | 395 kts | 134° |
| 2026-05-05 12:24 | 51.93021 | 5.92050 | 26518 ft | 398 kts | 134° |
| 2026-05-05 12:25 | 51.91200 | 5.95446 | 26901 ft | 400 kts | 134° |
| 2026-05-05 12:25 | 51.89368 | 5.98857 | 27265 ft | 402 kts | 134° |
| 2026-05-05 12:25 | 51.87557 | 6.02253 | 27624 ft | 404 kts | 134° |
| 2026-05-05 12:25 | 51.85701 | 6.05674 | 27990 ft | 406 kts | 135° |
| 2026-05-05 12:26 | 51.83824 | 6.09130 | 28338 ft | 408 kts | 135° |
| 2026-05-05 12:26 | 51.81947 | 6.12577 | 28714 ft | 410 kts | 135° |
| 2026-05-05 12:26 | 51.78964 | 6.18052 | 29264 ft | 413 kts | 135° |
| 2026-05-05 12:26 | 51.75128 | 6.25065 | 29867 ft | 419 kts | 136° |
| 2026-05-05 12:27 | 51.71384 | 6.31892 | 29794 ft | 402 kts | 136° |
| 2026-05-05 12:27 | 51.67575 | 6.38812 | 29838 ft | 421 kts | 136° |
| 2026-05-05 12:27 | 51.63666 | 6.45907 | 30411 ft | 423 kts | 136° |
| 2026-05-05 12:27 | 51.59736 | 6.53015 | 31035 ft | 422 kts | 136° |
| 2026-05-05 12:28 | 51.57151 | 6.57683 | 31414 ft | 422 kts | 136° |
| 2026-05-05 12:28 | 51.53212 | 6.64776 | 31979 ft | 422 kts | 136° |
| 2026-05-05 12:28 | 51.49326 | 6.71755 | 32554 ft | 421 kts | 137° |
| 2026-05-05 12:28 | 51.45415 | 6.78759 | 33112 ft | 421 kts | 137° |
| 2026-05-05 12:29 | 51.41431 | 6.85586 | 33634 ft | 417 kts | 142° |
| 2026-05-05 12:29 | 51.37040 | 6.91557 | 34121 ft | 411 kts | 148° |
| 2026-05-05 12:29 | 51.32436 | 6.97021 | 34534 ft | 411 kts | 149° |
| 2026-05-05 12:29 | 51.27901 | 7.02331 | 34799 ft | 389 kts | 149° |
| 2026-05-05 12:30 | 51.19073 | 7.12603 | 34903 ft | 405 kts | 149° |
| 2026-05-05 12:30 | 51.09855 | 7.23295 | 34858 ft | 409 kts | 149° |
| 2026-05-05 12:31 | 51.00710 | 7.33844 | 34846 ft | 408 kts | 149° |
| 2026-05-05 12:31 | 50.91460 | 7.44463 | 34860 ft | 407 kts | 149° |
| 2026-05-05 12:32 | 50.82354 | 7.54864 | 34850 ft | 406 kts | 150° |
| 2026-05-05 12:32 | 50.77451 | 7.59039 | 34855 ft | 396 kts | 163° |
| 2026-05-05 12:32 | 50.72276 | 7.61885 | 34851 ft | 392 kts | 169° |
| 2026-05-05 12:33 | 50.61786 | 7.66273 | 34849 ft | 390 kts | 169° |
| 2026-05-05 12:33 | 50.51281 | 7.70587 | 34845 ft | 388 kts | 169° |
| 2026-05-05 12:34 | 50.40813 | 7.74871 | 34842 ft | 388 kts | 169° |
| 2026-05-05 12:34 | 50.30361 | 7.79128 | 34832 ft | 387 kts | 169° |
| 2026-05-05 12:35 | 50.19945 | 7.83351 | 34833 ft | 386 kts | 169° |
| 2026-05-05 12:35 | 50.09600 | 7.87526 | 34834 ft | 385 kts | 169° |
| 2026-05-05 12:36 | 49.99248 | 7.91687 | 34840 ft | 384 kts | 169° |
| 2026-05-05 12:36 | 49.88887 | 7.95832 | 34843 ft | 384 kts | 169° |
| 2026-05-05 12:37 | 49.78556 | 7.99948 | 34842 ft | 383 kts | 168° |
| 2026-05-05 12:37 | 49.68215 | 8.04048 | 34839 ft | 383 kts | 168° |
| 2026-05-05 12:38 | 49.57897 | 8.08122 | 34850 ft | 383 kts | 168° |
| 2026-05-05 12:38 | 49.47574 | 8.12180 | 34852 ft | 383 kts | 168° |
| 2026-05-05 12:39 | 49.37299 | 8.16201 | 34844 ft | 383 kts | 168° |
| 2026-05-05 12:39 | 49.26978 | 8.20224 | 34862 ft | 383 kts | 168° |
| 2026-05-05 12:40 | 49.16621 | 8.24242 | 34861 ft | 384 kts | 168° |
| 2026-05-05 12:40 | 49.06228 | 8.28258 | 34857 ft | 385 kts | 167° |
| 2026-05-05 12:41 | 48.95698 | 8.31353 | 34861 ft | 385 kts | 176° |
| 2026-05-05 12:41 | 48.85001 | 8.32467 | 34858 ft | 385 kts | 177° |
| 2026-05-05 12:42 | 48.74335 | 8.33518 | 34853 ft | 386 kts | 177° |
| 2026-05-05 12:42 | 48.63557 | 8.34578 | 34865 ft | 388 kts | 177° |
| 2026-05-05 12:43 | 48.52759 | 8.35636 | 34865 ft | 389 kts | 177° |
| 2026-05-05 12:43 | 48.41932 | 8.36692 | 34877 ft | 390 kts | 177° |
| 2026-05-05 12:44 | 48.31044 | 8.37749 | 34885 ft | 391 kts | 177° |
| 2026-05-05 12:44 | 48.20217 | 8.38798 | 34869 ft | 393 kts | 177° |
| 2026-05-05 12:45 | 48.09290 | 8.39850 | 34877 ft | 394 kts | 177° |
| 2026-05-05 12:45 | 47.98328 | 8.40901 | 34880 ft | 395 kts | 177° |
| 2026-05-05 12:46 | 47.87348 | 8.41950 | 34882 ft | 395 kts | 177° |
| 2026-05-05 12:46 | 47.76406 | 8.42990 | 34887 ft | 396 kts | 178° |
| 2026-05-05 12:47 | 47.65402 | 8.44217 | 34874 ft | 397 kts | 176° |
| 2026-05-05 12:47 | 47.54440 | 8.45839 | 34905 ft | 397 kts | 176° |
| 2026-05-05 12:48 | 47.43384 | 8.47467 | 34886 ft | 398 kts | 176° |
| 2026-05-05 12:48 | 47.32418 | 8.49072 | 34885 ft | 398 kts | 177° |
| 2026-05-05 12:49 | 47.21389 | 8.50680 | 34862 ft | 397 kts | 177° |
| 2026-05-05 12:49 | 47.10358 | 8.52282 | 34871 ft | 397 kts | 177° |
| 2026-05-05 12:50 | 46.99378 | 8.53867 | 34886 ft | 396 kts | 178° |
| 2026-05-05 12:50 | 46.88412 | 8.55448 | 34896 ft | 395 kts | 178° |
| 2026-05-05 12:51 | 46.77488 | 8.57014 | 34902 ft | 394 kts | 179° |
| 2026-05-05 12:51 | 46.66577 | 8.58574 | 34966 ft | 393 kts | 179° |
| 2026-05-05 12:52 | 46.55772 | 8.60110 | 34990 ft | 392 kts | 179° |
| 2026-05-05 12:52 | 46.44896 | 8.61650 | 34970 ft | 392 kts | 179° |
| 2026-05-05 12:53 | 46.35865 | 8.62923 | 35003 ft | 391 kts | 180° |
| 2026-05-05 12:53 | 46.23260 | 8.64698 | 35009 ft | 391 kts | 180° |
| 2026-05-05 12:54 | 46.08852 | 8.66671 | 35006 ft | 389 kts | 181° |
| 2026-05-05 12:55 | 45.98011 | 8.67898 | 34997 ft | 391 kts | 181° |
| 2026-05-05 12:55 | 45.87169 | 8.69116 | 35004 ft | 391 kts | 181° |
| 2026-05-05 12:56 | 45.76304 | 8.70335 | 35009 ft | 392 kts | 181° |
| 2026-05-05 12:56 | 45.65485 | 8.71543 | 34998 ft | 392 kts | 181° |
| 2026-05-05 12:57 | 45.54605 | 8.72754 | 34993 ft | 392 kts | 181° |
| 2026-05-05 12:57 | 45.43683 | 8.73963 | 34993 ft | 393 kts | 181° |
| 2026-05-05 12:58 | 45.32768 | 8.75169 | 35034 ft | 393 kts | 181° |
| 2026-05-05 12:58 | 45.21903 | 8.76363 | 35035 ft | 394 kts | 181° |
| 2026-05-05 12:59 | 45.10961 | 8.77562 | 34999 ft | 395 kts | 181° |
| 2026-05-05 12:59 | 44.99982 | 8.78760 | 34996 ft | 395 kts | 181° |
| 2026-05-05 13:00 | 44.83562 | 8.80542 | 34986 ft | 396 kts | 181° |
| 2026-05-05 13:01 | 44.61553 | 8.82917 | 34964 ft | 397 kts | 181° |
| 2026-05-05 13:01 | 44.50537 | 8.84099 | 34970 ft | 397 kts | 181° |
| 2026-05-05 13:02 | 44.39591 | 8.85268 | 34960 ft | 396 kts | 181° |
| 2026-05-05 13:02 | 44.28588 | 8.86441 | 34962 ft | 396 kts | 181° |
| 2026-05-05 13:03 | 44.17611 | 8.87604 | 34969 ft | 396 kts | 182° |
| 2026-05-05 13:03 | 44.06610 | 8.88766 | 34978 ft | 397 kts | 182° |
| 2026-05-05 13:04 | 43.95602 | 8.89925 | 34968 ft | 397 kts | 182° |
| 2026-05-05 13:04 | 43.84547 | 8.91085 | 34961 ft | 398 kts | 182° |
| 2026-05-05 13:05 | 43.73480 | 8.92241 | 34969 ft | 399 kts | 182° |
| 2026-05-05 13:05 | 43.62460 | 8.93388 | 34968 ft | 399 kts | 182° |
| 2026-05-05 13:06 | 43.51375 | 8.94538 | 34964 ft | 399 kts | 183° |
| 2026-05-05 13:06 | 43.40295 | 8.95621 | 34966 ft | 398 kts | 185° |
| 2026-05-05 13:07 | 43.29350 | 8.95146 | 34971 ft | 393 kts | 191° |
| 2026-05-05 13:07 | 43.21351 | 8.94555 | 34975 ft | 392 kts | 191° |
| 2026-05-05 13:08 | 43.15896 | 8.94155 | 34974 ft | 392 kts | 191° |
| 2026-05-05 13:08 | 43.10445 | 8.93757 | 34974 ft | 392 kts | 191° |
| 2026-05-05 13:09 | 43.04989 | 8.93360 | 34969 ft | 392 kts | 191° |
| 2026-05-05 13:09 | 42.99574 | 8.92967 | 34968 ft | 392 kts | 191° |
| 2026-05-05 13:10 | 42.94116 | 8.92571 | 34966 ft | 392 kts | 191° |
| 2026-05-05 13:10 | 42.88669 | 8.92177 | 34967 ft | 392 kts | 191° |
| 2026-05-05 13:11 | 42.83210 | 8.91783 | 34968 ft | 392 kts | 191° |
| 2026-05-05 13:11 | 42.77789 | 8.91392 | 34958 ft | 392 kts | 191° |
| 2026-05-05 13:12 | 42.72332 | 8.90999 | 34965 ft | 393 kts | 192° |
| 2026-05-05 13:12 | 42.66877 | 8.90608 | 34960 ft | 392 kts | 192° |
| 2026-05-05 13:13 | 42.61416 | 8.90216 | 34970 ft | 393 kts | 192° |
| 2026-05-05 13:13 | 42.55952 | 8.89824 | 34972 ft | 394 kts | 192° |
| 2026-05-05 13:14 | 42.50476 | 8.89431 | 34988 ft | 394 kts | 192° |
| 2026-05-05 13:14 | 42.45040 | 8.89046 | 34984 ft | 392 kts | 192° |
| 2026-05-05 13:15 | 42.39589 | 8.88659 | 34987 ft | 393 kts | 192° |
| 2026-05-05 13:15 | 42.34120 | 8.88268 | 34961 ft | 392 kts | 191° |
| 2026-05-05 13:16 | 42.28655 | 8.87881 | 35015 ft | 394 kts | 192° |
| 2026-05-05 13:16 | 42.23177 | 8.87491 | 35021 ft | 392 kts | 191° |
| 2026-05-05 13:17 | 42.17703 | 8.87108 | 35032 ft | 394 kts | 192° |
| 2026-05-05 13:17 | 42.12237 | 8.86719 | 35008 ft | 394 kts | 192° |
| 2026-05-05 13:18 | 42.06759 | 8.86334 | 35000 ft | 394 kts | 192° |
| 2026-05-05 13:18 | 42.01280 | 8.85950 | 34999 ft | 394 kts | 192° |
| 2026-05-05 13:19 | 41.95803 | 8.85563 | 35005 ft | 394 kts | 192° |
| 2026-05-05 13:19 | 41.90357 | 8.85182 | 34987 ft | 394 kts | 192° |
| 2026-05-05 13:20 | 41.84891 | 8.84798 | 35004 ft | 395 kts | 192° |
| 2026-05-05 13:20 | 41.79405 | 8.84417 | 34999 ft | 394 kts | 191° |
| 2026-05-05 13:21 | 41.73920 | 8.84033 | 34994 ft | 394 kts | 192° |
| 2026-05-05 13:21 | 41.68434 | 8.83651 | 35000 ft | 395 kts | 191° |
| 2026-05-05 13:22 | 41.62944 | 8.83270 | 34992 ft | 395 kts | 191° |
| 2026-05-05 13:22 | 41.57442 | 8.82888 | 34988 ft | 396 kts | 191° |
| 2026-05-05 13:23 | 41.51944 | 8.82507 | 34991 ft | 396 kts | 191° |
| 2026-05-05 13:23 | 41.46471 | 8.82129 | 34996 ft | 396 kts | 191° |
| 2026-05-05 13:24 | 41.40952 | 8.81745 | 34990 ft | 401 kts | 191° |
| 2026-05-05 13:24 | 41.35274 | 8.81380 | 34998 ft | 417 kts | 190° |
| 2026-05-05 13:25 | 41.32333 | 8.81356 | 34990 ft | 429 kts | 185° |
| 2026-05-05 13:25 | 41.29315 | 8.81572 | 34988 ft | 434 kts | 185° |
| 2026-05-05 13:25 | 41.23309 | 8.82607 | 34982 ft | 442 kts | 174° |
| 2026-05-05 13:26 | 41.17307 | 8.84213 | 34986 ft | 438 kts | 179° |
| 2026-05-05 13:26 | 41.11293 | 8.85432 | 34984 ft | 436 kts | 180° |
| 2026-05-05 13:27 | 41.05275 | 8.86557 | 34949 ft | 436 kts | 180° |
| 2026-05-05 13:27 | 40.99284 | 8.87142 | 34954 ft | 431 kts | 185° |
| 2026-05-05 13:28 | 40.93334 | 8.87496 | 34995 ft | 431 kts | 185° |
| 2026-05-05 13:28 | 40.87340 | 8.87838 | 34982 ft | 430 kts | 185° |
| 2026-05-05 13:29 | 40.81353 | 8.88182 | 34988 ft | 431 kts | 185° |
| 2026-05-05 13:29 | 40.75362 | 8.88527 | 34970 ft | 431 kts | 185° |
| 2026-05-05 13:30 | 40.72357 | 8.88699 | 34505 ft | 428 kts | 185° |
| 2026-05-05 13:30 | 40.69417 | 8.88872 | 34065 ft | 417 kts | 185° |
| 2026-05-05 13:30 | 40.66547 | 8.89034 | 33583 ft | 412 kts | 185° |
| 2026-05-05 13:30 | 40.63647 | 8.89194 | 33114 ft | 420 kts | 185° |
| 2026-05-05 13:31 | 40.60713 | 8.89365 | 32655 ft | 423 kts | 185° |
| 2026-05-05 13:31 | 40.57768 | 8.89535 | 32205 ft | 424 kts | 185° |
| 2026-05-05 13:31 | 40.54851 | 8.89702 | 31765 ft | 425 kts | 185° |
| 2026-05-05 13:31 | 40.51889 | 8.89872 | 31323 ft | 427 kts | 184° |
| 2026-05-05 13:32 | 40.48910 | 8.90041 | 30891 ft | 431 kts | 184° |
| 2026-05-05 13:32 | 40.45914 | 8.90214 | 30457 ft | 431 kts | 184° |
| 2026-05-05 13:32 | 40.42911 | 8.90385 | 30045 ft | 432 kts | 184° |
| 2026-05-05 13:32 | 40.39889 | 8.90557 | 29551 ft | 434 kts | 184° |
| 2026-05-05 13:33 | 40.36862 | 8.90728 | 29018 ft | 436 kts | 184° |
| 2026-05-05 13:33 | 40.33886 | 8.90903 | 28424 ft | 419 kts | 184° |
| 2026-05-05 13:33 | 40.31032 | 8.91065 | 27857 ft | 404 kts | 184° |
| 2026-05-05 13:33 | 40.28238 | 8.91219 | 27316 ft | 400 kts | 184° |
| 2026-05-05 13:34 | 40.25450 | 8.91375 | 26792 ft | 403 kts | 184° |
| 2026-05-05 13:34 | 40.22645 | 8.91536 | 26280 ft | 402 kts | 184° |
| 2026-05-05 13:34 | 40.19858 | 8.91694 | 25775 ft | 399 kts | 183° |
| 2026-05-05 13:34 | 40.17129 | 8.91848 | 25296 ft | 397 kts | 183° |
| 2026-05-05 13:35 | 40.14374 | 8.92003 | 24809 ft | 395 kts | 183° |
| 2026-05-05 13:35 | 40.11626 | 8.92160 | 24339 ft | 394 kts | 183° |
| 2026-05-05 13:35 | 40.08896 | 8.92315 | 23892 ft | 392 kts | 183° |
| 2026-05-05 13:35 | 40.06171 | 8.92468 | 23459 ft | 391 kts | 183° |